Grygla, Minnesota
Current Conditions -  °F | °C
As of 11:15 PM on Tuesday 25 Nov 2014 (Local Time) from KTVF Reporting Station
Overcast Overcast  
Wind Chill:   Ceiling: 3700
Heat Index: 16°   Visibility: 5mi
Dew Point: 10°   Wind: 15mph
Humidity: 79%   Direction: 10°N
Pressure: 30.09"   Gusts: NA
Location:  48.3°N, 95.62°W
Report Text: KTVF 260515Z AUTO 01013KT 5SM SCT024 BKN037 OVC090 M09/M12 A3009 RMK AO1
Loading
Personal Weather Stations






























Interactive Weather Map New forecast layout! Learn more

10-Day Weather Forecast

Advertisements
Track Severe Weather on mobile